Park Rapids, Minnesota
Current Conditions -  °F | °C
As of 8:53 AM on Tuesday 21 Oct 2014 (Local Time) from KPKD Reporting Station
Clear Clear  
Wind Chill: 31°   Ceiling: Unl
Heat Index: 38°   Visibility: 10mi
Dew Point: 36°   Wind: 10mph
Humidity: 93%   Direction: 140°SE
Pressure: 30.13"   Gusts: NA
Location:  46.92°N, 95.06°W
Report Text: KPKD 211353Z AUTO 14009KT 10SM CLR 03/02 A3013 RMK AO2 SLP215 T00330022 TSNO
Loading
Personal Weather Stations






























Interactive Weather Map New forecast layout! Learn more

10-Day Weather Forecast

Advertisements
Track Severe Weather on mobile